DLH726 EDDM-ZSPD
Flight info
| Callsign | DLH726 |
|---|---|
| Flight time | N/A |
| Altitude | 37000 |
| Route | KIRDI2E KIRDI DCT BUWOQ DCT OBFEZ DCT STEIN DCT TEGRI DCT DINRO DCT UDROS DCT BAMUP UM859 KARDE UN644 FALAZ/N0479F390 UN644 ROLIN DCT TAGAR DCT BT DCT BARAD M747 SUBUT T916 LEYLA N644 NIJAT L88 METKA B476 TIMGA A480 OTBOR/K0900F390 N147 ELAHA Z621 ARBOL M610 RULAD/K0900S1250 A343 POSOT B215 FKG W188 LIKMI W270 DKO W69 HUR B339 SOTMU/K0876S1220 W98 ELKUR W40 DOXAB/K0880S1250 W40 YQG/K0872S1220 W142 DALIM/K0876S1250 A593 DPX A470 DALNU W166 ZJ W167 SASAN SAS82A |
| Aircraft | A359/H-SADE2E3GHIJ1J2J3J4J5M1P2RWXYZ/LB1D1 |
Departure
| Time | N/A |
|---|---|
| Airport | Munich Airport (EDDM) |
Arrival
| Time | 2026-04-30 18:20 |
|---|---|
| Airport | Shanghai Pudong International Airport (ZSPD) |
| Time | Latitude | Longitude | Altitude | Speed | Heading |
|---|---|---|---|---|---|
| 2026-04-30 17:39 | 33.50541 | 118.42272 | 41134 ft | 571 kts | 148° |
| 2026-04-30 17:42 | 33.17866 | 118.69165 | 41160 ft | 570 kts | 148° |
| 2026-04-30 17:43 | 33.01586 | 118.82683 | 41160 ft | 570 kts | 148° |
| 2026-04-30 17:44 | 32.82022 | 118.98833 | 41173 ft | 570 kts | 148° |
| 2026-04-30 17:47 | 32.52770 | 119.23064 | 41168 ft | 570 kts | 148° |
| 2026-04-30 17:48 | 32.30003 | 119.41774 | 41184 ft | 569 kts | 149° |
| 2026-04-30 17:50 | 32.04035 | 119.62976 | 41161 ft | 567 kts | 149° |
| 2026-04-30 17:51 | 31.94496 | 119.71197 | 41189 ft | 572 kts | 136° |
| 2026-04-30 17:52 | 31.87480 | 119.82577 | 39578 ft | 579 kts | 124° |
| 2026-04-30 17:53 | 31.76082 | 120.02395 | 35753 ft | 585 kts | 122° |
| 2026-04-30 17:54 | 31.66957 | 120.18152 | 33199 ft | 579 kts | 122° |
| 2026-04-30 17:55 | 31.58391 | 120.33766 | 30954 ft | 557 kts | 108° |
| 2026-04-30 17:56 | 31.53362 | 120.50612 | 28744 ft | 538 kts | 105° |
| 2026-04-30 17:57 | 31.49723 | 120.62818 | 27176 ft | 524 kts | 106° |
| 2026-04-30 17:58 | 31.46144 | 120.74737 | 25603 ft | 511 kts | 107° |
| 2026-04-30 17:59 | 31.41487 | 120.90172 | 23499 ft | 495 kts | 108° |
| 2026-04-30 18:00 | 31.36984 | 121.05014 | 21370 ft | 473 kts | 107° |
| 2026-04-30 18:00 | 31.31981 | 121.14502 | 19954 ft | 454 kts | 141° |
| 2026-04-30 18:01 | 31.27238 | 121.19161 | 19802 ft | 444 kts | 142° |
| 2026-04-30 18:02 | 31.20237 | 121.26175 | 18784 ft | 444 kts | 141° |
| 2026-04-30 18:02 | 31.13426 | 121.33593 | 16551 ft | 446 kts | 123° |
| 2026-04-30 18:03 | 31.12058 | 121.43484 | 15119 ft | 391 kts | 77° |
| 2026-04-30 18:04 | 31.12597 | 121.52180 | 14373 ft | 340 kts | 80° |
| 2026-04-30 18:05 | 31.12917 | 121.63272 | 13329 ft | 339 kts | 82° |
| 2026-04-30 18:06 | 31.07025 | 121.70485 | 12219 ft | 338 kts | 176° |
| 2026-04-30 18:07 | 30.97951 | 121.73040 | 10919 ft | 331 kts | 166° |
| 2026-04-30 18:08 | 30.91461 | 121.75438 | 9779 ft | 322 kts | 165° |
| 2026-04-30 18:09 | 30.83148 | 121.78597 | 8182 ft | 308 kts | 163° |
| 2026-04-30 18:10 | 30.75295 | 121.81681 | 7059 ft | 280 kts | 153° |
| 2026-04-30 18:11 | 30.74554 | 121.88887 | 5972 ft | 240 kts | 65° |
| 2026-04-30 18:11 | 30.76373 | 121.94230 | 4926 ft | 232 kts | 47° |
| 2026-04-30 18:12 | 30.80753 | 121.94819 | 4521 ft | 223 kts | 346° |
| 2026-04-30 18:13 | 30.83214 | 121.93976 | 4517 ft | 223 kts | 342° |
| 2026-04-30 18:13 | 30.87012 | 121.92550 | 4512 ft | 223 kts | 342° |
| 2026-04-30 18:14 | 30.90262 | 121.91330 | 4555 ft | 200 kts | 342° |
| 2026-04-30 18:15 | 30.94202 | 121.89846 | 3912 ft | 195 kts | 341° |
| 2026-04-30 18:15 | 30.97905 | 121.88452 | 3088 ft | 176 kts | 340° |
| 2026-04-30 18:16 | 31.00047 | 121.87645 | 2647 ft | 149 kts | 339° |
| 2026-04-30 18:16 | 31.01906 | 121.86943 | 2262 ft | 137 kts | 338° |
| 2026-04-30 18:17 | 31.02817 | 121.86599 | 2076 ft | 138 kts | 338° |
| 2026-04-30 18:17 | 31.03730 | 121.86254 | 1885 ft | 138 kts | 338° |
| 2026-04-30 18:17 | 31.05562 | 121.85562 | 1513 ft | 139 kts | 337° |
| 2026-04-30 18:18 | 31.06481 | 121.85215 | 1327 ft | 139 kts | 337° |
| 2026-04-30 18:18 | 31.07402 | 121.84868 | 1144 ft | 139 kts | 338° |
| 2026-04-30 18:18 | 31.08314 | 121.84522 | 949 ft | 137 kts | 338° |
| 2026-04-30 18:18 | 31.09222 | 121.84179 | 772 ft | 138 kts | 338° |
| 2026-04-30 18:19 | 31.10138 | 121.83832 | 585 ft | 138 kts | 340° |
| 2026-04-30 18:19 | 31.11054 | 121.83488 | 394 ft | 139 kts | 340° |
| 2026-04-30 18:19 | 31.11985 | 121.83136 | 237 ft | 140 kts | 341° |
| 2026-04-30 18:19 | 31.12908 | 121.82786 | 64 ft | 139 kts | 341° |
| 2026-04-30 18:20 | 31.13784 | 121.82452 | 20 ft | 126 kts | 341° |
| 2026-04-30 18:20 | 31.14406 | 121.82220 | 19 ft | 63 kts | 342° |
| 2026-04-30 18:20 | 31.14713 | 121.82104 | 15 ft | 44 kts | 342° |
| 2026-04-30 18:20 | 31.14980 | 121.81979 | 17 ft | 38 kts | 326° |
| 2026-04-30 18:21 | 31.15170 | 121.81783 | 22 ft | 25 kts | 313° |
| 2026-04-30 18:21 | 31.15290 | 121.81637 | 23 ft | 22 kts | 317° |
| 2026-04-30 18:21 | 31.15416 | 121.81562 | 21 ft | 18 kts | 340° |
| 2026-04-30 18:21 | 31.15501 | 121.81503 | 18 ft | 12 kts | 290° |
| 2026-04-30 18:22 | 31.15487 | 121.81396 | 21 ft | 15 kts | 256° |
| 2026-04-30 18:22 | 31.15405 | 121.81109 | 19 ft | 21 kts | 251° |
| 2026-04-30 18:22 | 31.15365 | 121.80946 | 19 ft | 17 kts | 260° |
| 2026-04-30 18:23 | 31.15392 | 121.80831 | 20 ft | 16 kts | 330° |
| 2026-04-30 18:23 | 31.15508 | 121.80795 | 19 ft | 19 kts | 346° |
| 2026-04-30 18:23 | 31.15642 | 121.80749 | 19 ft | 21 kts | 343° |
| 2026-04-30 18:23 | 31.15712 | 121.80672 | 19 ft | 11 kts | 257° |
| 2026-04-30 18:24 | 31.15694 | 121.80603 | 19 ft | 0 kts | 252° |